עמוד ראשי
METAR-TAF:

METAR-TAF

שדות תעופה :

נמל התעופה הבינלאומי ררוטונגה

Rarotonga, איי קוק

קו רוחב: 21-12S, קו אורך: 159-49W, גובה: 7מטר

תצפית מזג אוויר נוכחית

הדו"ח נערך לפני 43דקות, בשעה 09:30 UTC
רוח 10קשר מכיוון מזרח
טמפרטורת 24 צלסיוס
לחות 89%
לחץ 1017 hPa
ראות 10 קילומטר או יותר

METAR: NCRG 150930Z AUTO 09010KT 9999 FEW019/// BKN037/// 24/22 Q1017

זמן: 00:13 (10:13 UTC)

תחזית

הדו"ח נערך לפני 5 שעות ו 3דקות, בשעה 05:10 UTC
תחזית בתוקף מ 15 ב 06 UTC עד 16 ב 06 UTC
רוח 5קשר מכיוון מזרח
ראות 10 קילומטר או יותר
מעט עננים בגובה 1900רגל
עננים בינוניים בגובה 5500רגל
זמנית מ -
16 ב 03 UTC עד 16 ב 06 UTC
ראות: 5000מטר
עננים בינוניים בגובה 1500רגל
גשם,

TAF: NCRG 150510Z 1506/1606 10005KT 9999 FEW019 BKN055 TEMPO 1603/1606 5000 RA BKN015

תצפיות ותחזיות מזג אוויר לגבי יותר מ- 4,000 שדות תעופה ברחבי העולם. דוחות METAR ו- TAF.

התחנות הזמינות מסומנות בנקודות צהובות ואדומות על גבי המפה.

העבר את העכבר לנקודה הצבעונית על מנת לראות את שם התחנה.

לאחר מכן, לחץ כדי לראות את תוכן ואת תחזיות מזג האוויר.

כדי לשנות את המפה: לחץ על הכפתורים הירוקים עם הפלוס השחור כדי להתקרב; על הכפתור הירוק עם המקף כדי להתרחק; או בחיצים הירוקים למפות סמוכות.


METAR-TAF: